Porangatu, Brazil
Current Conditions -  °F | °C
As of 4:00 PM on Friday 28 Nov 2014 (Local Time) from SBBR Reporting Station
Thunderstorm Thunderstorm  
Wind Chill: 72°   Ceiling: Unl
Heat Index: 72°   Visibility: 6mi
Dew Point: 66°   Wind: 14mph
Humidity: 83%   Direction: 350°N
Pressure: 30.03"   Gusts: NA
Location:  13.44°S, 49.15°W
Report Text: SBBR 281800Z 35012KT 9000 2500W -TSRA FEW010 SCT030 FEW040CB BKN080 22/19 Q1017
Loading
Personal Weather Stations






























Interactive Weather Map New forecast layout! Learn more

10-Day Weather Forecast

Advertisements
Track Severe Weather on mobile